sensor_id;sensor_type;location;lat;lon;timestamp;temperature;humidity
10296;DHT22;5193;51.032;6.356;2022-12-26T00:00:58;11.30;99.90
10296;DHT22;5193;51.032;6.356;2022-12-26T00:03:24;11.20;99.90
10296;DHT22;5193;51.032;6.356;2022-12-26T00:05:50;11.20;99.90
10296;DHT22;5193;51.032;6.356;2022-12-26T00:08:17;11.20;99.90
10296;DHT22;5193;51.032;6.356;2022-12-26T00:10:42;11.20;99.90
10296;DHT22;5193;51.032;6.356;2022-12-26T00:13:08;11.20;99.90
10296;DHT22;5193;51.032;6.356;2022-12-26T00:15:34;11.20;99.90
10296;DHT22;5193;51.032;6.356;2022-12-26T00:17:59;11.20;99.90
10296;DHT22;5193;51.032;6.356;2022-12-26T00:20:25;11.20;99.90
10296;DHT22;5193;51.032;6.356;2022-12-26T00:22:51;11.30;99.90
10296;DHT22;5193;51.032;6.356;2022-12-26T00:25:16;11.30;99.90
10296;DHT22;5193;51.032;6.356;2022-12-26T00:27:42;11.30;99.90
10296;DHT22;5193;51.032;6.356;2022-12-26T00:30:08;11.40;99.90
10296;DHT22;5193;51.032;6.356;2022-12-26T00:32:33;11.30;99.90
10296;DHT22;5193;51.032;6.356;2022-12-26T00:34:59;11.40;99.90
10296;DHT22;5193;51.032;6.356;2022-12-26T00:37:25;11.40;99.90
10296;DHT22;5193;51.032;6.356;2022-12-26T00:39:50;11.50;99.90
10296;DHT22;5193;51.032;6.356;2022-12-26T00:42:16;11.50;99.90
10296;DHT22;5193;51.032;6.356;2022-12-26T00:44:41;11.50;99.90
10296;DHT22;5193;51.032;6.356;2022-12-26T00:47:07;11.50;99.90
10296;DHT22;5193;51.032;6.356;2022-12-26T00:49:32;11.50;99.90
10296;DHT22;5193;51.032;6.356;2022-12-26T00:51:58;11.40;99.90
10296;DHT22;5193;51.032;6.356;2022-12-26T00:54:23;11.50;99.90
10296;DHT22;5193;51.032;6.356;2022-12-26T00:56:49;11.50;99.90
10296;DHT22;5193;51.032;6.356;2022-12-26T00:59:14;11.50;99.90
10296;DHT22;5193;51.032;6.356;2022-12-26T01:01:40;11.50;99.90
10296;DHT22;5193;51.032;6.356;2022-12-26T01:04:06;11.40;99.90
10296;DHT22;5193;51.032;6.356;2022-12-26T01:06:31;11.50;99.90
10296;DHT22;5193;51.032;6.356;2022-12-26T01:08:57;11.60;99.90
10296;DHT22;5193;51.032;6.356;2022-12-26T01:11:24;11.50;99.90
10296;DHT22;5193;51.032;6.356;2022-12-26T01:14:07;11.50;99.90
10296;DHT22;5193;51.032;6.356;2022-12-26T01:16:33;11.50;99.90
10296;DHT22;5193;51.032;6.356;2022-12-26T01:18:59;11.50;99.90
10296;DHT22;5193;51.032;6.356;2022-12-26T01:21:24;11.50;99.90
10296;DHT22;5193;51.032;6.356;2022-12-26T01:23:50;11.50;99.90
10296;DHT22;5193;51.032;6.356;2022-12-26T01:26:15;11.50;99.90
10296;DHT22;5193;51.032;6.356;2022-12-26T01:28:41;11.50;99.90
10296;DHT22;5193;51.032;6.356;2022-12-26T01:31:06;11.60;99.90
10296;DHT22;5193;51.032;6.356;2022-12-26T01:33:32;11.50;99.90
10296;DHT22;5193;51.032;6.356;2022-12-26T01:35:58;11.50;99.90
10296;DHT22;5193;51.032;6.356;2022-12-26T01:38:24;11.60;99.90
10296;DHT22;5193;51.032;6.356;2022-12-26T01:40:49;11.60;99.90
10296;DHT22;5193;51.032;6.356;2022-12-26T01:46:14;11.50;99.90
10296;DHT22;5193;51.032;6.356;2022-12-26T01:48:40;11.50;99.90
10296;DHT22;5193;51.032;6.356;2022-12-26T01:51:06;11.50;99.90
10296;DHT22;5193;51.032;6.356;2022-12-26T01:53:42;11.50;99.90
10296;DHT22;5193;51.032;6.356;2022-12-26T01:56:15;11.40;99.90
10296;DHT22;5193;51.032;6.356;2022-12-26T01:58:48;11.40;99.90
10296;DHT22;5193;51.032;6.356;2022-12-26T02:01:14;11.40;99.90
10296;DHT22;5193;51.032;6.356;2022-12-26T02:03:43;11.30;99.90
10296;DHT22;5193;51.032;6.356;2022-12-26T02:06:29;11.30;99.90
10296;DHT22;5193;51.032;6.356;2022-12-26T02:08:55;11.40;99.90
10296;DHT22;5193;51.032;6.356;2022-12-26T02:11:38;11.30;99.90
10296;DHT22;5193;51.032;6.356;2022-12-26T02:14:06;11.10;99.90
10296;DHT22;5193;51.032;6.356;2022-12-26T02:16:36;11.10;99.90
10296;DHT22;5193;51.032;6.356;2022-12-26T02:19:03;10.90;99.90
10296;DHT22;5193;51.032;6.356;2022-12-26T02:27:15;10.80;99.90
10296;DHT22;5193;51.032;6.356;2022-12-26T02:36:01;10.70;99.90
10296;DHT22;5193;51.032;6.356;2022-12-26T02:46:36;10.70;99.90
10296;DHT22;5193;51.032;6.356;2022-12-26T02:49:41;10.70;99.90
10296;DHT22;5193;51.032;6.356;2022-12-26T02:52:46;10.70;99.90
10296;DHT22;5193;51.032;6.356;2022-12-26T02:55:36;10.60;99.90
10296;DHT22;5193;51.032;6.356;2022-12-26T02:58:28;10.60;99.90
10296;DHT22;5193;51.032;6.356;2022-12-26T03:01:34;10.60;99.90
10296;DHT22;5193;51.032;6.356;2022-12-26T03:04:21;10.60;99.90
10296;DHT22;5193;51.032;6.356;2022-12-26T03:07:13;10.60;99.90
10296;DHT22;5193;51.032;6.356;2022-12-26T03:10:01;10.50;99.90
10296;DHT22;5193;51.032;6.356;2022-12-26T03:12:53;10.50;99.90
10296;DHT22;5193;51.032;6.356;2022-12-26T03:15:47;10.50;99.90
10296;DHT22;5193;51.032;6.356;2022-12-26T03:18:36;10.50;99.90
10296;DHT22;5193;51.032;6.356;2022-12-26T03:21:05;10.50;99.90
10296;DHT22;5193;51.032;6.356;2022-12-26T03:23:32;10.50;99.90
10296;DHT22;5193;51.032;6.356;2022-12-26T03:26:01;10.50;99.90
10296;DHT22;5193;51.032;6.356;2022-12-26T03:28:46;10.50;99.90
10296;DHT22;5193;51.032;6.356;2022-12-26T03:31:13;10.50;99.90
10296;DHT22;5193;51.032;6.356;2022-12-26T03:33:42;10.50;99.90
10296;DHT22;5193;51.032;6.356;2022-12-26T03:48:53;10.40;99.90
10296;DHT22;5193;51.032;6.356;2022-12-26T03:51:46;10.40;99.90
10296;DHT22;5193;51.032;6.356;2022-12-26T03:57:27;10.50;99.90
10296;DHT22;5193;51.032;6.356;2022-12-26T04:00:13;10.50;99.90
10296;DHT22;5193;51.032;6.356;2022-12-26T04:03:09;10.50;99.90
10296;DHT22;5193;51.032;6.356;2022-12-26T04:05:55;10.40;99.90
10296;DHT22;5193;51.032;6.356;2022-12-26T04:08:54;10.40;99.90
10296;DHT22;5193;51.032;6.356;2022-12-26T04:11:42;10.40;99.90
10296;DHT22;5193;51.032;6.356;2022-12-26T04:14:54;10.40;99.90
10296;DHT22;5193;51.032;6.356;2022-12-26T04:17:57;10.40;99.90
10296;DHT22;5193;51.032;6.356;2022-12-26T04:23:30;10.40;99.90
10296;DHT22;5193;51.032;6.356;2022-12-26T04:26:32;10.40;99.90
10296;DHT22;5193;51.032;6.356;2022-12-26T04:29:18;10.30;99.90
10296;DHT22;5193;51.032;6.356;2022-12-26T04:34:53;10.30;99.90
10296;DHT22;5193;51.032;6.356;2022-12-26T04:37:42;10.30;99.90
10296;DHT22;5193;51.032;6.356;2022-12-26T04:40:31;10.30;99.90
10296;DHT22;5193;51.032;6.356;2022-12-26T04:43:17;10.30;99.90
10296;DHT22;5193;51.032;6.356;2022-12-26T04:46:02;10.30;99.90
10296;DHT22;5193;51.032;6.356;2022-12-26T04:48:29;10.30;99.90
10296;DHT22;5193;51.032;6.356;2022-12-26T04:51:13;10.20;99.90
10296;DHT22;5193;51.032;6.356;2022-12-26T04:53:38;10.20;99.90
10296;DHT22;5193;51.032;6.356;2022-12-26T04:56:04;10.20;99.90
10296;DHT22;5193;51.032;6.356;2022-12-26T04:58:29;10.20;99.90
10296;DHT22;5193;51.032;6.356;2022-12-26T05:00:56;10.20;99.90
10296;DHT22;5193;51.032;6.356;2022-12-26T05:03:41;10.20;99.90
10296;DHT22;5193;51.032;6.356;2022-12-26T05:06:25;10.20;99.90
10296;DHT22;5193;51.032;6.356;2022-12-26T05:09:10;10.10;99.90
10296;DHT22;5193;51.032;6.356;2022-12-26T05:11:54;10.10;99.90
10296;DHT22;5193;51.032;6.356;2022-12-26T05:14:19;10.20;99.90
10296;DHT22;5193;51.032;6.356;2022-12-26T05:16:45;10.10;99.90
10296;DHT22;5193;51.032;6.356;2022-12-26T05:19:29;10.10;99.90
10296;DHT22;5193;51.032;6.356;2022-12-26T05:22:13;10.10;99.90
10296;DHT22;5193;51.032;6.356;2022-12-26T05:24:57;10.20;99.90
10296;DHT22;5193;51.032;6.356;2022-12-26T05:27:42;10.20;99.90
10296;DHT22;5193;51.032;6.356;2022-12-26T05:30:27;10.20;99.90
10296;DHT22;5193;51.032;6.356;2022-12-26T05:32:53;10.20;99.90
10296;DHT22;5193;51.032;6.356;2022-12-26T05:35:37;10.20;99.90
10296;DHT22;5193;51.032;6.356;2022-12-26T05:38:03;10.20;99.90
10296;DHT22;5193;51.032;6.356;2022-12-26T05:40:29;10.20;99.90
10296;DHT22;5193;51.032;6.356;2022-12-26T05:42:55;10.20;99.90
10296;DHT22;5193;51.032;6.356;2022-12-26T05:45:20;10.20;99.90
10296;DHT22;5193;51.032;6.356;2022-12-26T05:47:46;10.20;99.90
10296;DHT22;5193;51.032;6.356;2022-12-26T05:50:12;10.20;99.90
10296;DHT22;5193;51.032;6.356;2022-12-26T05:52:37;10.20;99.90
10296;DHT22;5193;51.032;6.356;2022-12-26T05:55:03;10.20;99.90
10296;DHT22;5193;51.032;6.356;2022-12-26T05:57:29;10.20;99.90
10296;DHT22;5193;51.032;6.356;2022-12-26T05:59:54;10.20;99.90
10296;DHT22;5193;51.032;6.356;2022-12-26T06:02:20;10.20;99.90
10296;DHT22;5193;51.032;6.356;2022-12-26T06:04:45;10.20;99.90
10296;DHT22;5193;51.032;6.356;2022-12-26T06:07:11;10.20;99.90
10296;DHT22;5193;51.032;6.356;2022-12-26T06:09:37;10.20;99.90
10296;DHT22;5193;51.032;6.356;2022-12-26T06:12:02;10.20;99.90
10296;DHT22;5193;51.032;6.356;2022-12-26T06:14:28;10.20;99.90
10296;DHT22;5193;51.032;6.356;2022-12-26T06:16:53;10.20;99.90
10296;DHT22;5193;51.032;6.356;2022-12-26T06:19:19;10.20;99.90
10296;DHT22;5193;51.032;6.356;2022-12-26T06:21:45;10.20;99.90
10296;DHT22;5193;51.032;6.356;2022-12-26T06:24:10;10.20;99.90
10296;DHT22;5193;51.032;6.356;2022-12-26T06:26:38;10.10;99.90
10296;DHT22;5193;51.032;6.356;2022-12-26T06:29:04;10.10;99.90
10296;DHT22;5193;51.032;6.356;2022-12-26T06:31:29;10.10;99.90
10296;DHT22;5193;51.032;6.356;2022-12-26T06:33:56;10.10;99.90
10296;DHT22;5193;51.032;6.356;2022-12-26T06:36:27;10.10;99.90
10296;DHT22;5193;51.032;6.356;2022-12-26T06:38:54;10.10;99.90
10296;DHT22;5193;51.032;6.356;2022-12-26T06:41:21;10.10;99.90
10296;DHT22;5193;51.032;6.356;2022-12-26T06:43:48;10.10;99.90
10296;DHT22;5193;51.032;6.356;2022-12-26T06:46:17;10.20;99.90
10296;DHT22;5193;51.032;6.356;2022-12-26T06:48:42;10.20;99.90
10296;DHT22;5193;51.032;6.356;2022-12-26T06:51:11;10.20;99.90
10296;DHT22;5193;51.032;6.356;2022-12-26T06:53:37;10.20;99.90
10296;DHT22;5193;51.032;6.356;2022-12-26T06:58:31;10.20;99.90
10296;DHT22;5193;51.032;6.356;2022-12-26T07:01:06;10.20;99.90
10296;DHT22;5193;51.032;6.356;2022-12-26T07:03:32;10.20;99.90
10296;DHT22;5193;51.032;6.356;2022-12-26T07:06:05;10.10;99.90
10296;DHT22;5193;51.032;6.356;2022-12-26T07:08:32;10.10;99.90
10296;DHT22;5193;51.032;6.356;2022-12-26T07:10:58;10.10;99.90
10296;DHT22;5193;51.032;6.356;2022-12-26T07:13:24;10.10;99.90
10296;DHT22;5193;51.032;6.356;2022-12-26T07:15:50;10.00;99.90
10296;DHT22;5193;51.032;6.356;2022-12-26T07:18:16;10.00;99.90
10296;DHT22;5193;51.032;6.356;2022-12-26T07:20:42;10.00;99.90
10296;DHT22;5193;51.032;6.356;2022-12-26T07:23:08;10.00;99.90
10296;DHT22;5193;51.032;6.356;2022-12-26T07:25:36;10.00;99.90
10296;DHT22;5193;51.032;6.356;2022-12-26T07:28:02;10.00;99.90
10296;DHT22;5193;51.032;6.356;2022-12-26T07:30:28;9.90;99.90
10296;DHT22;5193;51.032;6.356;2022-12-26T07:32:53;9.90;99.90
10296;DHT22;5193;51.032;6.356;2022-12-26T07:38:25;9.90;99.90
10296;DHT22;5193;51.032;6.356;2022-12-26T07:40:56;9.90;99.90
10296;DHT22;5193;51.032;6.356;2022-12-26T07:43:22;9.90;99.90
10296;DHT22;5193;51.032;6.356;2022-12-26T07:45:48;9.90;99.90
10296;DHT22;5193;51.032;6.356;2022-12-26T07:48:14;9.90;99.90
10296;DHT22;5193;51.032;6.356;2022-12-26T07:50:40;9.90;99.90
10296;DHT22;5193;51.032;6.356;2022-12-26T07:53:06;9.90;99.90
10296;DHT22;5193;51.032;6.356;2022-12-26T07:55:31;9.90;99.90
10296;DHT22;5193;51.032;6.356;2022-12-26T07:57:57;9.90;99.90
10296;DHT22;5193;51.032;6.356;2022-12-26T08:00:22;9.80;99.90
10296;DHT22;5193;51.032;6.356;2022-12-26T08:02:49;9.80;99.90
10296;DHT22;5193;51.032;6.356;2022-12-26T08:05:16;9.80;99.90
10296;DHT22;5193;51.032;6.356;2022-12-26T08:07:45;9.80;99.90
10296;DHT22;5193;51.032;6.356;2022-12-26T08:10:10;9.80;99.90
10296;DHT22;5193;51.032;6.356;2022-12-26T08:12:36;9.80;99.90
10296;DHT22;5193;51.032;6.356;2022-12-26T08:15:02;9.80;99.90
10296;DHT22;5193;51.032;6.356;2022-12-26T08:17:28;9.80;99.90
10296;DHT22;5193;51.032;6.356;2022-12-26T08:19:55;9.90;99.90
10296;DHT22;5193;51.032;6.356;2022-12-26T08:22:21;9.80;99.90
10296;DHT22;5193;51.032;6.356;2022-12-26T08:24:46;9.80;99.90
10296;DHT22;5193;51.032;6.356;2022-12-26T08:27:12;9.80;99.90
10296;DHT22;5193;51.032;6.356;2022-12-26T08:29:38;9.80;99.90
10296;DHT22;5193;51.032;6.356;2022-12-26T08:32:03;9.80;99.90
10296;DHT22;5193;51.032;6.356;2022-12-26T08:34:33;9.80;99.90
10296;DHT22;5193;51.032;6.356;2022-12-26T08:36:59;9.80;99.90
10296;DHT22;5193;51.032;6.356;2022-12-26T08:39:25;9.80;99.90
10296;DHT22;5193;51.032;6.356;2022-12-26T08:41:50;9.80;99.90
10296;DHT22;5193;51.032;6.356;2022-12-26T08:44:16;9.80;99.90
10296;DHT22;5193;51.032;6.356;2022-12-26T08:46:42;9.80;99.90
10296;DHT22;5193;51.032;6.356;2022-12-26T08:49:08;9.90;99.90
10296;DHT22;5193;51.032;6.356;2022-12-26T08:51:33;9.90;99.90
10296;DHT22;5193;51.032;6.356;2022-12-26T08:53:59;9.90;99.90
10296;DHT22;5193;51.032;6.356;2022-12-26T08:56:25;10.00;99.90
10296;DHT22;5193;51.032;6.356;2022-12-26T08:58:52;10.00;99.90
10296;DHT22;5193;51.032;6.356;2022-12-26T09:01:23;10.00;99.90
10296;DHT22;5193;51.032;6.356;2022-12-26T09:04:03;10.10;99.90
10296;DHT22;5193;51.032;6.356;2022-12-26T09:06:32;10.10;99.90
10296;DHT22;5193;51.032;6.356;2022-12-26T09:08:58;10.10;99.90
10296;DHT22;5193;51.032;6.356;2022-12-26T09:11:24;10.20;99.90
10296;DHT22;5193;51.032;6.356;2022-12-26T09:13:55;10.20;99.90
10296;DHT22;5193;51.032;6.356;2022-12-26T09:16:27;10.20;99.90
10296;DHT22;5193;51.032;6.356;2022-12-26T09:18:55;10.20;99.90
10296;DHT22;5193;51.032;6.356;2022-12-26T09:21:22;10.20;99.90
10296;DHT22;5193;51.032;6.356;2022-12-26T09:23:47;10.30;99.90
10296;DHT22;5193;51.032;6.356;2022-12-26T09:26:16;10.30;99.90
10296;DHT22;5193;51.032;6.356;2022-12-26T09:28:42;10.30;99.90
10296;DHT22;5193;51.032;6.356;2022-12-26T09:31:12;10.30;99.90
10296;DHT22;5193;51.032;6.356;2022-12-26T09:33:38;10.30;99.90
10296;DHT22;5193;51.032;6.356;2022-12-26T09:36:05;10.30;99.90
10296;DHT22;5193;51.032;6.356;2022-12-26T09:38:31;10.40;99.90
10296;DHT22;5193;51.032;6.356;2022-12-26T09:41:04;10.40;99.90
10296;DHT22;5193;51.032;6.356;2022-12-26T09:46:33;10.40;99.90
10296;DHT22;5193;51.032;6.356;2022-12-26T09:49:11;10.40;99.90
10296;DHT22;5193;51.032;6.356;2022-12-26T09:51:40;10.50;99.90
10296;DHT22;5193;51.032;6.356;2022-12-26T09:56:58;10.60;99.90
10296;DHT22;5193;51.032;6.356;2022-12-26T09:59:26;10.50;99.90
10296;DHT22;5193;51.032;6.356;2022-12-26T10:01:52;10.60;99.90
10296;DHT22;5193;51.032;6.356;2022-12-26T10:04:24;10.60;99.90
10296;DHT22;5193;51.032;6.356;2022-12-26T10:07:19;10.70;99.90
10296;DHT22;5193;51.032;6.356;2022-12-26T10:09:50;10.60;99.90
10296;DHT22;5193;51.032;6.356;2022-12-26T10:12:38;10.60;99.90
10296;DHT22;5193;51.032;6.356;2022-12-26T10:15:18;10.60;99.90
10296;DHT22;5193;51.032;6.356;2022-12-26T10:17:54;10.60;99.90
10296;DHT22;5193;51.032;6.356;2022-12-26T10:23:37;10.70;99.90
10296;DHT22;5193;51.032;6.356;2022-12-26T10:26:12;10.60;99.90
10296;DHT22;5193;51.032;6.356;2022-12-26T10:28:52;10.60;99.90
10296;DHT22;5193;51.032;6.356;2022-12-26T10:31:28;10.60;99.90
10296;DHT22;5193;51.032;6.356;2022-12-26T10:36:52;10.70;99.90
10296;DHT22;5193;51.032;6.356;2022-12-26T10:39:27;10.70;99.90
10296;DHT22;5193;51.032;6.356;2022-12-26T10:41:58;10.70;99.90
10296;DHT22;5193;51.032;6.356;2022-12-26T10:44:25;10.70;99.90
10296;DHT22;5193;51.032;6.356;2022-12-26T10:49:35;10.70;99.90
10296;DHT22;5193;51.032;6.356;2022-12-26T10:52:02;10.70;99.90
10296;DHT22;5193;51.032;6.356;2022-12-26T10:54:29;10.70;99.90
10296;DHT22;5193;51.032;6.356;2022-12-26T10:56:56;10.70;99.90
10296;DHT22;5193;51.032;6.356;2022-12-26T10:59:38;10.70;99.90
10296;DHT22;5193;51.032;6.356;2022-12-26T11:07:25;10.80;99.90
10296;DHT22;5193;51.032;6.356;2022-12-26T11:09:52;10.80;99.90
10296;DHT22;5193;51.032;6.356;2022-12-26T11:12:29;10.80;99.90
10296;DHT22;5193;51.032;6.356;2022-12-26T11:15:01;10.80;99.90
10296;DHT22;5193;51.032;6.356;2022-12-26T11:17:30;10.80;99.90
10296;DHT22;5193;51.032;6.356;2022-12-26T11:22:40;10.90;99.90
10296;DHT22;5193;51.032;6.356;2022-12-26T11:27:38;11.10;99.90
10296;DHT22;5193;51.032;6.356;2022-12-26T11:32:40;11.20;99.90
10296;DHT22;5193;51.032;6.356;2022-12-26T11:35:16;11.20;99.90
10296;DHT22;5193;51.032;6.356;2022-12-26T11:37:44;11.20;99.90
10296;DHT22;5193;51.032;6.356;2022-12-26T11:40:19;11.20;99.90
10296;DHT22;5193;51.032;6.356;2022-12-26T11:42:51;11.30;99.90
10296;DHT22;5193;51.032;6.356;2022-12-26T11:45:21;11.30;99.90
10296;DHT22;5193;51.032;6.356;2022-12-26T11:47:48;11.30;99.90
10296;DHT22;5193;51.032;6.356;2022-12-26T11:50:15;11.30;99.90
10296;DHT22;5193;51.032;6.356;2022-12-26T11:55:27;11.20;99.90
10296;DHT22;5193;51.032;6.356;2022-12-26T12:01:20;11.30;99.90
10296;DHT22;5193;51.032;6.356;2022-12-26T12:03:45;11.30;99.90
10296;DHT22;5193;51.032;6.356;2022-12-26T12:28:55;11.80;99.90
10296;DHT22;5193;51.032;6.356;2022-12-26T12:31:52;11.80;99.90
10296;DHT22;5193;51.032;6.356;2022-12-26T12:34:45;11.80;99.90
10296;DHT22;5193;51.032;6.356;2022-12-26T12:40:41;11.70;99.90
10296;DHT22;5193;51.032;6.356;2022-12-26T12:54:49;11.30;99.90
10296;DHT22;5193;51.032;6.356;2022-12-26T13:00:11;11.10;99.90
10296;DHT22;5193;51.032;6.356;2022-12-26T13:02:54;11.00;99.90
10296;DHT22;5193;51.032;6.356;2022-12-26T13:05:41;11.00;99.90
10296;DHT22;5193;51.032;6.356;2022-12-26T13:08:29;10.90;99.90
10296;DHT22;5193;51.032;6.356;2022-12-26T13:14:21;10.80;99.90
10296;DHT22;5193;51.032;6.356;2022-12-26T13:17:04;10.80;99.90
10296;DHT22;5193;51.032;6.356;2022-12-26T13:19:47;10.70;99.90
10296;DHT22;5193;51.032;6.356;2022-12-26T13:22:26;10.60;99.90
10296;DHT22;5193;51.032;6.356;2022-12-26T13:24:58;10.40;99.90
10296;DHT22;5193;51.032;6.356;2022-12-26T13:27:30;10.20;99.90
10296;DHT22;5193;51.032;6.356;2022-12-26T13:29:56;10.10;99.90
10296;DHT22;5193;51.032;6.356;2022-12-26T13:32:29;9.90;99.90
10296;DHT22;5193;51.032;6.356;2022-12-26T13:34:57;9.80;99.90
10296;DHT22;5193;51.032;6.356;2022-12-26T13:40:14;9.60;99.90
10296;DHT22;5193;51.032;6.356;2022-12-26T13:42:54;9.50;99.90
10296;DHT22;5193;51.032;6.356;2022-12-26T13:50:55;9.40;99.90
10296;DHT22;5193;51.032;6.356;2022-12-26T13:56:01;9.30;99.90
10296;DHT22;5193;51.032;6.356;2022-12-26T13:58:44;9.30;99.90
10296;DHT22;5193;51.032;6.356;2022-12-26T14:09:41;9.10;99.90
10296;DHT22;5193;51.032;6.356;2022-12-26T14:23:22;9.10;99.90
10296;DHT22;5193;51.032;6.356;2022-12-26T14:26:13;9.00;99.90
10296;DHT22;5193;51.032;6.356;2022-12-26T14:28:59;9.10;99.90
10296;DHT22;5193;51.032;6.356;2022-12-26T14:42:29;8.90;99.90
10296;DHT22;5193;51.032;6.356;2022-12-26T14:47:54;8.90;99.90
10296;DHT22;5193;51.032;6.356;2022-12-26T14:55:51;8.70;99.90
10296;DHT22;5193;51.032;6.356;2022-12-26T14:58:33;8.60;99.90
10296;DHT22;5193;51.032;6.356;2022-12-26T15:20:19;8.10;99.90
10296;DHT22;5193;51.032;6.356;2022-12-26T15:23:24;8.10;99.90
10296;DHT22;5193;51.032;6.356;2022-12-26T15:39:25;7.80;99.90
10296;DHT22;5193;51.032;6.356;2022-12-26T15:42:14;7.80;99.90
10296;DHT22;5193;51.032;6.356;2022-12-26T15:47:35;7.70;99.90
10296;DHT22;5193;51.032;6.356;2022-12-26T15:50:23;7.60;99.90
10296;DHT22;5193;51.032;6.356;2022-12-26T15:53:07;7.60;99.90
10296;DHT22;5193;51.032;6.356;2022-12-26T16:00:57;7.50;99.90
10296;DHT22;5193;51.032;6.356;2022-12-26T16:03:36;7.50;99.90
10296;DHT22;5193;51.032;6.356;2022-12-26T16:06:16;7.40;99.90
10296;DHT22;5193;51.032;6.356;2022-12-26T16:11:53;7.40;99.90
10296;DHT22;5193;51.032;6.356;2022-12-26T16:16:50;7.20;99.90
10296;DHT22;5193;51.032;6.356;2022-12-26T16:19:26;7.20;99.90
10296;DHT22;5193;51.032;6.356;2022-12-26T16:21:55;7.10;99.90
10296;DHT22;5193;51.032;6.356;2022-12-26T16:24:43;7.10;99.90
10296;DHT22;5193;51.032;6.356;2022-12-26T16:27:15;7.00;99.90
10296;DHT22;5193;51.032;6.356;2022-12-26T16:29:55;6.90;99.90
10296;DHT22;5193;51.032;6.356;2022-12-26T16:32:29;6.90;99.90
10296;DHT22;5193;51.032;6.356;2022-12-26T16:34:57;6.80;99.90
10296;DHT22;5193;51.032;6.356;2022-12-26T16:37:24;6.70;99.90
10296;DHT22;5193;51.032;6.356;2022-12-26T16:40:28;6.60;99.90
10296;DHT22;5193;51.032;6.356;2022-12-26T16:43:03;6.50;99.90
10296;DHT22;5193;51.032;6.356;2022-12-26T16:45:32;6.50;99.90
10296;DHT22;5193;51.032;6.356;2022-12-26T16:47:58;6.40;99.90
10296;DHT22;5193;51.032;6.356;2022-12-26T16:50:29;6.30;99.90
10296;DHT22;5193;51.032;6.356;2022-12-26T16:57:57;6.40;99.90
10296;DHT22;5193;51.032;6.356;2022-12-26T17:00:23;6.20;99.90
10296;DHT22;5193;51.032;6.356;2022-12-26T17:02:54;6.20;99.90
10296;DHT22;5193;51.032;6.356;2022-12-26T17:05:31;6.20;99.90
10296;DHT22;5193;51.032;6.356;2022-12-26T17:07:59;6.20;99.90
10296;DHT22;5193;51.032;6.356;2022-12-26T17:10:28;6.20;99.90
10296;DHT22;5193;51.032;6.356;2022-12-26T17:12:57;6.10;99.90
10296;DHT22;5193;51.032;6.356;2022-12-26T17:15:30;6.10;99.90
10296;DHT22;5193;51.032;6.356;2022-12-26T17:17:58;6.10;99.90
10296;DHT22;5193;51.032;6.356;2022-12-26T17:22:54;6.10;99.90
10296;DHT22;5193;51.032;6.356;2022-12-26T17:25:30;6.10;99.90
10296;DHT22;5193;51.032;6.356;2022-12-26T17:30:37;6.00;99.90
10296;DHT22;5193;51.032;6.356;2022-12-26T17:33:24;5.90;99.90
10296;DHT22;5193;51.032;6.356;2022-12-26T17:35:56;5.80;99.90
10296;DHT22;5193;51.032;6.356;2022-12-26T17:38:24;5.80;99.90
10296;DHT22;5193;51.032;6.356;2022-12-26T17:40:56;5.70;99.90
10296;DHT22;5193;51.032;6.356;2022-12-26T17:43:30;5.70;99.90
10296;DHT22;5193;51.032;6.356;2022-12-26T17:45:56;5.60;99.90
10296;DHT22;5193;51.032;6.356;2022-12-26T17:48:22;5.50;99.90
10296;DHT22;5193;51.032;6.356;2022-12-26T17:50:53;5.40;99.90
10296;DHT22;5193;51.032;6.356;2022-12-26T17:53:29;5.40;99.90
10296;DHT22;5193;51.032;6.356;2022-12-26T17:56:02;5.30;99.90
10296;DHT22;5193;51.032;6.356;2022-12-26T17:58:28;5.30;99.90
10296;DHT22;5193;51.032;6.356;2022-12-26T18:00:54;5.30;99.90
10296;DHT22;5193;51.032;6.356;2022-12-26T18:03:20;5.20;99.90
10296;DHT22;5193;51.032;6.356;2022-12-26T18:05:46;5.10;99.90
10296;DHT22;5193;51.032;6.356;2022-12-26T18:08:28;5.10;99.90
10296;DHT22;5193;51.032;6.356;2022-12-26T18:10:54;5.00;99.90
10296;DHT22;5193;51.032;6.356;2022-12-26T18:13:20;5.00;99.90
10296;DHT22;5193;51.032;6.356;2022-12-26T18:15:46;4.90;99.90
10296;DHT22;5193;51.032;6.356;2022-12-26T18:20:55;4.90;99.90
10296;DHT22;5193;51.032;6.356;2022-12-26T18:23:21;4.80;99.90
10296;DHT22;5193;51.032;6.356;2022-12-26T18:25:48;4.70;99.90
10296;DHT22;5193;51.032;6.356;2022-12-26T18:28:15;4.70;99.90
10296;DHT22;5193;51.032;6.356;2022-12-26T18:30:41;4.60;99.90
10296;DHT22;5193;51.032;6.356;2022-12-26T18:33:09;4.60;99.90
10296;DHT22;5193;51.032;6.356;2022-12-26T18:35:36;4.50;99.90
10296;DHT22;5193;51.032;6.356;2022-12-26T18:38:02;4.50;99.90
10296;DHT22;5193;51.032;6.356;2022-12-26T18:40:34;4.50;99.90
10296;DHT22;5193;51.032;6.356;2022-12-26T18:43:01;4.40;99.90
10296;DHT22;5193;51.032;6.356;2022-12-26T18:45:28;4.40;99.90
10296;DHT22;5193;51.032;6.356;2022-12-26T18:47:54;4.40;99.90
10296;DHT22;5193;51.032;6.356;2022-12-26T18:50:20;4.30;99.90
10296;DHT22;5193;51.032;6.356;2022-12-26T18:52:45;4.30;99.90
10296;DHT22;5193;51.032;6.356;2022-12-26T18:55:11;4.30;99.90
10296;DHT22;5193;51.032;6.356;2022-12-26T18:57:37;4.30;99.90
10296;DHT22;5193;51.032;6.356;2022-12-26T19:00:03;4.30;99.90
10296;DHT22;5193;51.032;6.356;2022-12-26T19:02:29;4.30;99.90
10296;DHT22;5193;51.032;6.356;2022-12-26T19:04:55;4.30;99.90
10296;DHT22;5193;51.032;6.356;2022-12-26T19:07:20;4.20;99.90
10296;DHT22;5193;51.032;6.356;2022-12-26T19:09:51;4.20;99.90
10296;DHT22;5193;51.032;6.356;2022-12-26T19:12:21;4.10;99.90
10296;DHT22;5193;51.032;6.356;2022-12-26T19:14:47;4.10;99.90
10296;DHT22;5193;51.032;6.356;2022-12-26T19:17:13;4.00;99.90
10296;DHT22;5193;51.032;6.356;2022-12-26T19:19:40;4.00;99.90
10296;DHT22;5193;51.032;6.356;2022-12-26T19:22:06;3.90;99.90
10296;DHT22;5193;51.032;6.356;2022-12-26T19:24:31;4.00;99.90
10296;DHT22;5193;51.032;6.356;2022-12-26T19:26:58;3.90;99.90
10296;DHT22;5193;51.032;6.356;2022-12-26T19:29:24;3.90;99.90
10296;DHT22;5193;51.032;6.356;2022-12-26T19:31:49;3.90;99.90
10296;DHT22;5193;51.032;6.356;2022-12-26T19:34:15;3.80;99.90
10296;DHT22;5193;51.032;6.356;2022-12-26T19:36:40;3.80;99.90
10296;DHT22;5193;51.032;6.356;2022-12-26T19:39:06;3.90;99.90
10296;DHT22;5193;51.032;6.356;2022-12-26T19:41:32;3.80;99.90
10296;DHT22;5193;51.032;6.356;2022-12-26T19:43:58;3.80;99.90
10296;DHT22;5193;51.032;6.356;2022-12-26T19:46:25;3.80;99.90
10296;DHT22;5193;51.032;6.356;2022-12-26T19:48:52;3.80;99.90
10296;DHT22;5193;51.032;6.356;2022-12-26T19:51:18;3.80;99.90
10296;DHT22;5193;51.032;6.356;2022-12-26T19:53:45;3.70;99.90
10296;DHT22;5193;51.032;6.356;2022-12-26T19:56:14;3.70;99.90
10296;DHT22;5193;51.032;6.356;2022-12-26T19:58:41;3.70;99.90
10296;DHT22;5193;51.032;6.356;2022-12-26T20:01:28;3.70;99.90
10296;DHT22;5193;51.032;6.356;2022-12-26T20:03:59;3.70;99.90
10296;DHT22;5193;51.032;6.356;2022-12-26T20:06:28;3.70;99.90
10296;DHT22;5193;51.032;6.356;2022-12-26T20:08:59;3.70;99.90
10296;DHT22;5193;51.032;6.356;2022-12-26T20:11:28;3.70;99.90
10296;DHT22;5193;51.032;6.356;2022-12-26T20:13:54;3.70;99.90
10296;DHT22;5193;51.032;6.356;2022-12-26T20:16:22;3.70;99.90